TOM124 EGCC-EGKK
Flight info
| Callsign | TOM124 |
|---|---|
| Flight time | 0h 49m |
| Altitude | 17000 |
| Route | LISTO2R LISTO P18 UTUXA/N0372F190 P18 STAFA L8 HON N859 KIDLI KIDLI1G |
| Aircraft | B738/M-SDE2E3FGHIRWXY/LB1 |
Departure
| Time | 2026-05-07 19:39 |
|---|---|
| Airport | Manchester Airport (EGCC) |
Arrival
| Time | 2026-05-07 20:29 |
|---|---|
| Airport | London Gatwick Airport (EGKK) |
| Time | Latitude | Longitude | Altitude | Speed | Heading |
|---|---|---|---|---|---|
| 2026-05-07 19:11 | 53.36063 | -2.26842 | 254 ft | 0 kts | 315° |
| 2026-05-07 19:31 | 53.36061 | -2.26839 | 254 ft | 2 kts | 315° |
| 2026-05-07 19:31 | 53.36049 | -2.26819 | 254 ft | 2 kts | 315° |
| 2026-05-07 19:31 | 53.36038 | -2.26800 | 254 ft | 2 kts | 315° |
| 2026-05-07 19:31 | 53.36024 | -2.26786 | 254 ft | 2 kts | 354° |
| 2026-05-07 19:32 | 53.36008 | -2.26791 | 254 ft | 2 kts | 22° |
| 2026-05-07 19:32 | 53.36002 | -2.26798 | 254 ft | 0 kts | 51° |
| 2026-05-07 19:35 | 53.36007 | -2.26787 | 254 ft | 4 kts | 51° |
| 2026-05-07 19:35 | 53.36026 | -2.26747 | 254 ft | 4 kts | 51° |
| 2026-05-07 19:36 | 53.36045 | -2.26709 | 254 ft | 4 kts | 51° |
| 2026-05-07 19:36 | 53.36070 | -2.26610 | 254 ft | 13 kts | 90° |
| 2026-05-07 19:36 | 53.36071 | -2.26466 | 254 ft | 13 kts | 58° |
| 2026-05-07 19:36 | 53.36126 | -2.26351 | 254 ft | 12 kts | 50° |
| 2026-05-07 19:37 | 53.36189 | -2.26249 | 254 ft | 14 kts | 37° |
| 2026-05-07 19:37 | 53.36252 | -2.26131 | 254 ft | 13 kts | 54° |
| 2026-05-07 19:37 | 53.36268 | -2.26045 | 254 ft | 0 kts | 97° |
| 2026-05-07 19:38 | 53.36268 | -2.25993 | 254 ft | 10 kts | 82° |
| 2026-05-07 19:38 | 53.36281 | -2.25822 | 254 ft | 19 kts | 111° |
| 2026-05-07 19:38 | 53.36172 | -2.25841 | 253 ft | 20 kts | 229° |
| 2026-05-07 19:39 | 53.35958 | -2.26286 | 258 ft | 85 kts | 231° |
| 2026-05-07 19:39 | 53.35442 | -2.27358 | 255 ft | 150 kts | 231° |
| 2026-05-07 19:39 | 53.34722 | -2.28873 | 675 ft | 172 kts | 231° |
| 2026-05-07 19:39 | 53.34019 | -2.30441 | 1705 ft | 164 kts | 231° |
| 2026-05-07 19:40 | 53.33362 | -2.32013 | 2537 ft | 170 kts | 230° |
| 2026-05-07 19:40 | 53.32544 | -2.33689 | 2857 ft | 202 kts | 232° |
| 2026-05-07 19:40 | 53.32132 | -2.36070 | 3139 ft | 229 kts | 268° |
| 2026-05-07 19:40 | 53.32208 | -2.38776 | 3578 ft | 247 kts | 269° |
| 2026-05-07 19:41 | 53.31932 | -2.41547 | 4172 ft | 253 kts | 241° |
| 2026-05-07 19:41 | 53.30782 | -2.43763 | 4749 ft | 251 kts | 210° |
| 2026-05-07 19:41 | 53.29131 | -2.44648 | 5003 ft | 254 kts | 191° |
| 2026-05-07 19:41 | 53.27363 | -2.44827 | 4987 ft | 257 kts | 171° |
| 2026-05-07 19:42 | 53.25679 | -2.43846 | 5001 ft | 258 kts | 155° |
| 2026-05-07 19:42 | 53.24100 | -2.42436 | 5001 ft | 257 kts | 154° |
| 2026-05-07 19:42 | 53.22527 | -2.41016 | 4992 ft | 257 kts | 154° |
| 2026-05-07 19:42 | 53.20954 | -2.39604 | 4998 ft | 257 kts | 154° |
| 2026-05-07 19:43 | 53.19380 | -2.38202 | 5002 ft | 257 kts | 154° |
| 2026-05-07 19:43 | 53.17801 | -2.36810 | 4996 ft | 257 kts | 154° |
| 2026-05-07 19:43 | 53.16217 | -2.35421 | 5000 ft | 257 kts | 154° |
| 2026-05-07 19:43 | 53.14635 | -2.34037 | 5008 ft | 257 kts | 154° |
| 2026-05-07 19:44 | 53.13053 | -2.32653 | 5001 ft | 257 kts | 154° |
| 2026-05-07 19:44 | 53.11469 | -2.31269 | 5008 ft | 257 kts | 154° |
| 2026-05-07 19:44 | 53.09883 | -2.29886 | 4996 ft | 258 kts | 154° |
| 2026-05-07 19:44 | 53.08295 | -2.28501 | 4998 ft | 258 kts | 154° |
| 2026-05-07 19:45 | 53.06705 | -2.27114 | 4995 ft | 258 kts | 154° |
| 2026-05-07 19:45 | 53.05120 | -2.25733 | 4991 ft | 257 kts | 154° |
| 2026-05-07 19:45 | 53.03532 | -2.24352 | 5005 ft | 258 kts | 154° |
| 2026-05-07 19:45 | 53.01944 | -2.22973 | 5008 ft | 258 kts | 154° |
| 2026-05-07 19:46 | 53.00348 | -2.21587 | 5007 ft | 259 kts | 154° |
| 2026-05-07 19:46 | 52.98749 | -2.20200 | 5031 ft | 261 kts | 154° |
| 2026-05-07 19:46 | 52.97123 | -2.18793 | 5560 ft | 265 kts | 154° |
| 2026-05-07 19:46 | 52.95491 | -2.17380 | 6559 ft | 265 kts | 154° |
| 2026-05-07 19:47 | 52.93847 | -2.15958 | 7410 ft | 269 kts | 155° |
| 2026-05-07 19:47 | 52.92200 | -2.14535 | 8251 ft | 272 kts | 155° |
| 2026-05-07 19:47 | 52.90511 | -2.13078 | 9092 ft | 276 kts | 155° |
| 2026-05-07 19:47 | 52.88773 | -2.11578 | 9928 ft | 281 kts | 155° |
| 2026-05-07 19:48 | 52.87008 | -2.10058 | 10499 ft | 295 kts | 155° |
| 2026-05-07 19:48 | 52.85108 | -2.08427 | 10686 ft | 320 kts | 155° |
| 2026-05-07 19:48 | 52.83067 | -2.06675 | 11003 ft | 339 kts | 154° |
| 2026-05-07 19:48 | 52.80978 | -2.04878 | 11651 ft | 345 kts | 154° |
| 2026-05-07 19:49 | 52.78840 | -2.03039 | 12439 ft | 348 kts | 154° |
| 2026-05-07 19:49 | 52.76683 | -2.01185 | 13242 ft | 351 kts | 154° |
| 2026-05-07 19:49 | 52.74505 | -1.99315 | 13995 ft | 355 kts | 154° |
| 2026-05-07 19:49 | 52.72307 | -1.97433 | 14658 ft | 358 kts | 154° |
| 2026-05-07 19:50 | 52.70079 | -1.95527 | 15332 ft | 362 kts | 154° |
| 2026-05-07 19:50 | 52.67845 | -1.93618 | 16139 ft | 361 kts | 154° |
| 2026-05-07 19:50 | 52.65611 | -1.91711 | 16759 ft | 363 kts | 154° |
| 2026-05-07 19:50 | 52.63383 | -1.89811 | 17042 ft | 360 kts | 154° |
| 2026-05-07 19:51 | 52.61154 | -1.87915 | 17033 ft | 360 kts | 154° |
| 2026-05-07 19:51 | 52.58929 | -1.86023 | 17044 ft | 359 kts | 154° |
| 2026-05-07 19:51 | 52.56714 | -1.84141 | 17058 ft | 359 kts | 154° |
| 2026-05-07 19:51 | 52.54493 | -1.82258 | 17049 ft | 359 kts | 154° |
| 2026-05-07 19:52 | 52.52274 | -1.80378 | 17057 ft | 359 kts | 154° |
| 2026-05-07 19:52 | 52.50055 | -1.78500 | 17055 ft | 359 kts | 154° |
| 2026-05-07 19:52 | 52.47831 | -1.76620 | 17055 ft | 359 kts | 154° |
| 2026-05-07 19:52 | 52.45609 | -1.74744 | 17045 ft | 359 kts | 154° |
| 2026-05-07 19:53 | 52.43388 | -1.72870 | 17055 ft | 360 kts | 155° |
| 2026-05-07 19:53 | 52.41163 | -1.70995 | 17053 ft | 360 kts | 155° |
| 2026-05-07 19:53 | 52.38937 | -1.69122 | 17051 ft | 360 kts | 155° |
| 2026-05-07 19:53 | 52.36711 | -1.67252 | 17051 ft | 360 kts | 155° |
| 2026-05-07 19:54 | 52.34421 | -1.65621 | 17048 ft | 358 kts | 163° |
| 2026-05-07 19:54 | 52.32051 | -1.64361 | 17051 ft | 358 kts | 164° |
| 2026-05-07 19:54 | 52.29678 | -1.63149 | 17039 ft | 358 kts | 165° |
| 2026-05-07 19:54 | 52.27295 | -1.61939 | 17065 ft | 358 kts | 164° |
| 2026-05-07 19:55 | 52.24921 | -1.60727 | 17066 ft | 358 kts | 164° |
| 2026-05-07 19:55 | 52.22541 | -1.59505 | 17070 ft | 358 kts | 164° |
| 2026-05-07 19:55 | 52.20163 | -1.58278 | 17071 ft | 358 kts | 164° |
| 2026-05-07 19:55 | 52.17787 | -1.57049 | 17073 ft | 358 kts | 164° |
| 2026-05-07 19:56 | 52.15411 | -1.55818 | 17070 ft | 359 kts | 164° |
| 2026-05-07 19:56 | 52.13032 | -1.54585 | 17069 ft | 359 kts | 164° |
| 2026-05-07 19:56 | 52.10656 | -1.53355 | 17073 ft | 359 kts | 164° |
| 2026-05-07 19:56 | 52.08280 | -1.52126 | 17066 ft | 359 kts | 164° |
| 2026-05-07 19:57 | 52.05904 | -1.50898 | 17067 ft | 359 kts | 164° |
| 2026-05-07 19:57 | 52.03523 | -1.49668 | 17063 ft | 359 kts | 164° |
| 2026-05-07 19:57 | 52.01147 | -1.48443 | 17062 ft | 359 kts | 164° |
| 2026-05-07 19:57 | 51.98778 | -1.47223 | 17033 ft | 353 kts | 164° |
| 2026-05-07 19:58 | 51.96479 | -1.46037 | 17035 ft | 341 kts | 164° |
| 2026-05-07 19:58 | 51.94260 | -1.44895 | 17028 ft | 329 kts | 164° |
| 2026-05-07 19:58 | 51.92101 | -1.43786 | 17040 ft | 323 kts | 164° |
| 2026-05-07 19:58 | 51.89953 | -1.42685 | 16931 ft | 326 kts | 164° |
| 2026-05-07 19:59 | 51.87792 | -1.41579 | 16713 ft | 324 kts | 164° |
| 2026-05-07 19:59 | 51.85645 | -1.40481 | 16375 ft | 324 kts | 164° |
| 2026-05-07 19:59 | 51.83509 | -1.39388 | 16056 ft | 321 kts | 164° |
| 2026-05-07 19:59 | 51.81387 | -1.38304 | 15713 ft | 319 kts | 164° |
| 2026-05-07 20:00 | 51.79279 | -1.37228 | 15369 ft | 317 kts | 164° |
| 2026-05-07 20:00 | 51.77189 | -1.36118 | 15039 ft | 315 kts | 159° |
| 2026-05-07 20:00 | 51.75296 | -1.34404 | 14947 ft | 310 kts | 149° |
| 2026-05-07 20:00 | 51.73489 | -1.32510 | 14812 ft | 311 kts | 149° |
| 2026-05-07 20:01 | 51.71673 | -1.30572 | 14814 ft | 317 kts | 148° |
| 2026-05-07 20:01 | 51.69795 | -1.28574 | 14823 ft | 328 kts | 148° |
| 2026-05-07 20:01 | 51.67869 | -1.26537 | 14819 ft | 333 kts | 149° |
| 2026-05-07 20:01 | 51.65939 | -1.24505 | 14833 ft | 329 kts | 149° |
| 2026-05-07 20:02 | 51.64028 | -1.22503 | 14947 ft | 329 kts | 149° |
| 2026-05-07 20:02 | 51.62750 | -1.21169 | 15013 ft | 331 kts | 149° |
| 2026-05-07 20:02 | 51.60811 | -1.19151 | 15043 ft | 332 kts | 149° |
| 2026-05-07 20:02 | 51.58876 | -1.17142 | 15038 ft | 331 kts | 149° |
| 2026-05-07 20:03 | 51.56937 | -1.15132 | 15048 ft | 331 kts | 149° |
| 2026-05-07 20:03 | 51.55006 | -1.13133 | 15047 ft | 330 kts | 149° |
| 2026-05-07 20:03 | 51.53088 | -1.11151 | 15052 ft | 330 kts | 149° |
| 2026-05-07 20:03 | 51.51209 | -1.09211 | 15049 ft | 330 kts | 149° |
| 2026-05-07 20:04 | 51.49276 | -1.07218 | 15044 ft | 330 kts | 149° |
| 2026-05-07 20:04 | 51.47341 | -1.05224 | 15048 ft | 330 kts | 149° |
| 2026-05-07 20:04 | 51.45407 | -1.03234 | 15050 ft | 330 kts | 149° |
| 2026-05-07 20:04 | 51.43474 | -1.01246 | 15048 ft | 330 kts | 149° |
| 2026-05-07 20:05 | 51.41538 | -0.99258 | 15043 ft | 331 kts | 149° |
| 2026-05-07 20:05 | 51.39602 | -0.97272 | 15048 ft | 330 kts | 149° |
| 2026-05-07 20:05 | 51.37668 | -0.95290 | 15048 ft | 330 kts | 149° |
| 2026-05-07 20:05 | 51.35729 | -0.93304 | 15051 ft | 331 kts | 149° |
| 2026-05-07 20:06 | 51.33791 | -0.91322 | 15050 ft | 331 kts | 149° |
| 2026-05-07 20:06 | 51.31854 | -0.89343 | 15080 ft | 331 kts | 149° |
| 2026-05-07 20:06 | 51.30053 | -0.87505 | 15075 ft | 331 kts | 149° |
| 2026-05-07 20:06 | 51.28127 | -0.85540 | 15061 ft | 324 kts | 149° |
| 2026-05-07 20:07 | 51.26253 | -0.83629 | 15060 ft | 315 kts | 149° |
| 2026-05-07 20:07 | 51.24435 | -0.81777 | 15060 ft | 306 kts | 149° |
| 2026-05-07 20:07 | 51.22652 | -0.79963 | 15064 ft | 303 kts | 149° |
| 2026-05-07 20:07 | 51.20869 | -0.78154 | 15082 ft | 305 kts | 149° |
| 2026-05-07 20:08 | 51.19087 | -0.76345 | 14976 ft | 302 kts | 149° |
| 2026-05-07 20:08 | 51.17318 | -0.74552 | 14717 ft | 301 kts | 149° |
| 2026-05-07 20:08 | 51.15550 | -0.72761 | 14334 ft | 302 kts | 149° |
| 2026-05-07 20:08 | 51.13777 | -0.70966 | 13987 ft | 302 kts | 149° |
| 2026-05-07 20:09 | 51.12008 | -0.69175 | 13673 ft | 300 kts | 149° |
| 2026-05-07 20:09 | 51.10252 | -0.67401 | 13332 ft | 299 kts | 149° |
| 2026-05-07 20:09 | 51.08503 | -0.65636 | 13088 ft | 298 kts | 149° |
| 2026-05-07 20:10 | 51.05183 | -0.61672 | 13056 ft | 298 kts | 128° |
| 2026-05-07 20:10 | 51.04186 | -0.58873 | 13061 ft | 286 kts | 118° |
| 2026-05-07 20:10 | 51.03341 | -0.56082 | 13046 ft | 274 kts | 118° |
| 2026-05-07 20:10 | 51.02524 | -0.53401 | 13043 ft | 266 kts | 118° |
| 2026-05-07 20:11 | 51.01712 | -0.50771 | 13036 ft | 265 kts | 118° |
| 2026-05-07 20:11 | 51.00897 | -0.48154 | 12861 ft | 264 kts | 118° |
| 2026-05-07 20:11 | 51.00078 | -0.45545 | 12532 ft | 265 kts | 118° |
| 2026-05-07 20:11 | 50.99250 | -0.42913 | 12189 ft | 267 kts | 118° |
| 2026-05-07 20:12 | 50.98421 | -0.40282 | 12091 ft | 268 kts | 118° |
| 2026-05-07 20:12 | 50.97584 | -0.37626 | 12056 ft | 268 kts | 118° |
| 2026-05-07 20:12 | 50.96754 | -0.34995 | 11947 ft | 265 kts | 118° |
| 2026-05-07 20:12 | 50.95933 | -0.32394 | 11670 ft | 264 kts | 118° |
| 2026-05-07 20:13 | 50.95107 | -0.29783 | 11354 ft | 265 kts | 118° |
| 2026-05-07 20:13 | 50.94282 | -0.27177 | 11119 ft | 264 kts | 118° |
| 2026-05-07 20:13 | 50.93458 | -0.24575 | 11073 ft | 264 kts | 118° |
| 2026-05-07 20:13 | 50.92634 | -0.21977 | 11053 ft | 264 kts | 118° |
| 2026-05-07 20:14 | 50.91810 | -0.19379 | 11050 ft | 264 kts | 118° |
| 2026-05-07 20:14 | 50.90985 | -0.16781 | 11050 ft | 264 kts | 118° |
| 2026-05-07 20:14 | 50.90159 | -0.14186 | 11053 ft | 264 kts | 118° |
| 2026-05-07 20:14 | 50.89331 | -0.11590 | 11057 ft | 264 kts | 118° |
| 2026-05-07 20:15 | 50.88515 | -0.08980 | 11053 ft | 265 kts | 113° |
| 2026-05-07 20:15 | 50.88204 | -0.06124 | 11054 ft | 266 kts | 86° |
| 2026-05-07 20:15 | 50.88713 | -0.03343 | 11054 ft | 266 kts | 59° |
| 2026-05-07 20:15 | 50.89928 | -0.01178 | 11058 ft | 263 kts | 33° |
| 2026-05-07 20:16 | 50.91589 | -0.00052 | 11058 ft | 260 kts | 7° |
| 2026-05-07 20:16 | 50.93374 | -0.00146 | 11069 ft | 256 kts | 342° |
| 2026-05-07 20:16 | 50.94942 | -0.01398 | 11061 ft | 253 kts | 317° |
| 2026-05-07 20:16 | 50.96043 | -0.03514 | 10930 ft | 248 kts | 296° |
| 2026-05-07 20:17 | 50.96637 | -0.06052 | 10671 ft | 246 kts | 283° |
| 2026-05-07 20:17 | 50.97022 | -0.08701 | 10393 ft | 246 kts | 281° |
| 2026-05-07 20:17 | 50.97386 | -0.11349 | 10125 ft | 245 kts | 281° |
| 2026-05-07 20:17 | 50.97752 | -0.13981 | 9903 ft | 243 kts | 281° |
| 2026-05-07 20:18 | 50.98105 | -0.16593 | 9612 ft | 242 kts | 281° |
| 2026-05-07 20:18 | 50.98454 | -0.19208 | 9318 ft | 242 kts | 281° |
| 2026-05-07 20:18 | 50.98799 | -0.21815 | 9034 ft | 241 kts | 281° |
| 2026-05-07 20:18 | 50.99141 | -0.24424 | 8753 ft | 241 kts | 281° |
| 2026-05-07 20:19 | 50.99479 | -0.27024 | 8480 ft | 241 kts | 281° |
| 2026-05-07 20:19 | 50.99814 | -0.29623 | 8204 ft | 240 kts | 281° |
| 2026-05-07 20:19 | 51.00146 | -0.32222 | 7936 ft | 240 kts | 281° |
| 2026-05-07 20:19 | 51.00475 | -0.34813 | 7670 ft | 239 kts | 281° |
| 2026-05-07 20:20 | 51.00799 | -0.37400 | 7402 ft | 239 kts | 281° |
| 2026-05-07 20:20 | 51.01122 | -0.39992 | 7142 ft | 239 kts | 281° |
| 2026-05-07 20:20 | 51.01441 | -0.42573 | 6894 ft | 238 kts | 281° |
| 2026-05-07 20:20 | 51.01756 | -0.45148 | 6625 ft | 238 kts | 281° |
| 2026-05-07 20:21 | 51.02069 | -0.47735 | 6350 ft | 239 kts | 281° |
| 2026-05-07 20:21 | 51.02378 | -0.50326 | 6070 ft | 239 kts | 281° |
| 2026-05-07 20:21 | 51.02686 | -0.52919 | 5781 ft | 240 kts | 281° |
| 2026-05-07 20:21 | 51.02995 | -0.55521 | 5502 ft | 240 kts | 281° |
| 2026-05-07 20:22 | 51.03358 | -0.58102 | 5235 ft | 239 kts | 292° |
| 2026-05-07 20:22 | 51.04336 | -0.60196 | 4945 ft | 238 kts | 325° |
| 2026-05-07 20:22 | 51.05843 | -0.61149 | 4654 ft | 235 kts | 357° |
| 2026-05-07 20:22 | 51.07418 | -0.60693 | 4362 ft | 231 kts | 30° |
| 2026-05-07 20:23 | 51.08598 | -0.59030 | 4100 ft | 227 kts | 54° |
| 2026-05-07 20:23 | 51.09430 | -0.56921 | 3848 ft | 225 kts | 68° |
| 2026-05-07 20:23 | 51.09923 | -0.54566 | 3611 ft | 224 kts | 76° |
| 2026-05-07 20:23 | 51.10280 | -0.52163 | 3364 ft | 223 kts | 78° |
| 2026-05-07 20:24 | 51.10606 | -0.49764 | 3131 ft | 221 kts | 78° |
| 2026-05-07 20:24 | 51.10927 | -0.47399 | 3012 ft | 214 kts | 78° |
| 2026-05-07 20:24 | 51.11234 | -0.45153 | 3004 ft | 199 kts | 78° |
| 2026-05-07 20:24 | 51.11518 | -0.43085 | 2984 ft | 183 kts | 78° |
| 2026-05-07 20:25 | 51.11788 | -0.41141 | 2964 ft | 175 kts | 77° |
| 2026-05-07 20:25 | 51.12071 | -0.39227 | 2641 ft | 175 kts | 78° |
| 2026-05-07 20:25 | 51.12330 | -0.37369 | 2368 ft | 169 kts | 79° |
| 2026-05-07 20:25 | 51.12572 | -0.35585 | 2134 ft | 162 kts | 79° |
| 2026-05-07 20:26 | 51.12806 | -0.33852 | 1936 ft | 159 kts | 79° |
| 2026-05-07 20:26 | 51.13038 | -0.32129 | 1719 ft | 160 kts | 79° |
| 2026-05-07 20:26 | 51.13273 | -0.30395 | 1496 ft | 160 kts | 79° |
| 2026-05-07 20:26 | 51.13502 | -0.28702 | 1313 ft | 153 kts | 79° |
| 2026-05-07 20:27 | 51.13726 | -0.27046 | 1055 ft | 152 kts | 79° |
| 2026-05-07 20:27 | 51.13947 | -0.25422 | 837 ft | 149 kts | 79° |
| 2026-05-07 20:27 | 51.14166 | -0.23804 | 646 ft | 151 kts | 79° |
| 2026-05-07 20:27 | 51.14381 | -0.22162 | 413 ft | 152 kts | 78° |
| 2026-05-07 20:28 | 51.14603 | -0.20528 | 230 ft | 149 kts | 79° |
| 2026-05-07 20:28 | 51.14805 | -0.19062 | 212 ft | 117 kts | 77° |
| 2026-05-07 20:28 | 51.14948 | -0.18028 | 207 ft | 74 kts | 78° |
| 2026-05-07 20:28 | 51.15064 | -0.17329 | 208 ft | 58 kts | 60° |
| 2026-05-07 20:29 | 51.15154 | -0.17197 | 204 ft | 4 kts | 1° |
| 2026-05-07 20:29 | 51.15164 | -0.17197 | 204 ft | 0 kts | 1° |
| 2026-05-07 20:30 | 51.15183 | -0.17218 | 209 ft | 9 kts | 313° |
| 2026-05-07 20:30 | 51.15230 | -0.17292 | 212 ft | 10 kts | 319° |
| 2026-05-07 20:30 | 51.15289 | -0.17344 | 209 ft | 10 kts | 345° |
| 2026-05-07 20:30 | 51.15354 | -0.17368 | 209 ft | 9 kts | 347° |
| 2026-05-07 20:31 | 51.15418 | -0.17390 | 212 ft | 4 kts | 347° |
| 2026-05-07 20:31 | 51.15421 | -0.17391 | 208 ft | 4 kts | 348° |
| 2026-05-07 20:31 | 51.15480 | -0.17411 | 208 ft | 10 kts | 348° |
| 2026-05-07 20:31 | 51.15548 | -0.17432 | 209 ft | 10 kts | 358° |
| 2026-05-07 20:32 | 51.15590 | -0.17360 | 204 ft | 10 kts | 74° |
| 2026-05-07 20:32 | 51.15607 | -0.17259 | 211 ft | 9 kts | 76° |
| 2026-05-07 20:32 | 51.15622 | -0.17159 | 208 ft | 9 kts | 76° |
| 2026-05-07 20:32 | 51.15646 | -0.17053 | 206 ft | 11 kts | 48° |
| 2026-05-07 20:33 | 51.15730 | -0.17049 | 206 ft | 12 kts | 346° |
| 2026-05-07 20:33 | 51.15815 | -0.17074 | 204 ft | 13 kts | 2° |
| 2026-05-07 20:33 | 51.15899 | -0.17064 | 213 ft | 5 kts | 343° |
| 2026-05-07 20:33 | 51.15920 | -0.17080 | 208 ft | 3 kts | 332° |
| 2026-05-07 20:34 | 51.15943 | -0.17105 | 210 ft | 6 kts | 324° |
| 2026-05-07 20:34 | 51.15973 | -0.17143 | 206 ft | 0 kts | 322° |